Station: EBLB - 02/03/2024 15:55Z (il y a 22 minutes)
EBLB 021555Z AUTO 16008KT 9999 OVC032/// 09/03 Q0998 BLU
Vent du 160º - 8 kt
Visibilité > 10 km
Ciel couvert à 3200 pieds
Température: +09ºC - Point de rosée: +03ºC - QNH: 998 hPa
Code couleur militaire: BLU (conditions VMC)